Time;durP1;ratioP1;P1;durP2;ratioP2;P2;SDS_P1;SDS_P2;PMS_P1;PMS_P2;Temp;Humidity;BMP_temperature;BMP_pressure;BME280_temperature;BME280_humidity;BME280_pressure;Samples;Min_cycle;Max_cycle;Signal;HPM_P1;HPM_P2
2023/05/09 00:00:00;;;;;;;8.80;6.43;;;;;;;11.43;81.63;93700.16;515866;28;827;-53
2023/05/09 00:00:16;;;;;;;8.83;6.50;;;;;;;11.38;82.01;93701.06;515771;28;892;-53
2023/05/09 00:00:32;;;;;;;7.38;6.57;;;;;;;11.34;82.20;93701.44;515876;28;832;-55
2023/05/09 00:00:47;;;;;;;7.27;6.57;;;;;;;11.33;82.36;93699.94;515673;28;859;-54
2023/05/09 00:01:10;;;;;;;6.82;6.15;;;;;;;11.35;82.51;93702.16;515859;28;899;-55
2023/05/09 00:01:28;;;;;;;7.72;6.07;;;;;;;11.36;82.55;93711.94;517706;28;827;-56
2023/05/09 00:01:44;;;;;;;9.95;6.72;;;;;;;11.35;82.37;93699.38;517660;28;873;-55
2023/05/09 00:02:00;;;;;;;7.97;6.57;;;;;;;11.33;82.43;93699.19;517662;28;894;-54
2023/05/09 00:02:15;;;;;;;7.03;6.32;;;;;;;11.25;82.55;93698.44;517684;28;822;-55
2023/05/09 00:02:33;;;;;;;6.85;6.20;;;;;;;11.19;82.79;93700.63;517756;28;829;-53
2023/05/09 00:02:48;;;;;;;7.03;6.32;;;;;;;11.15;83.02;93706.50;517567;28;782;-55
2023/05/09 00:03:04;;;;;;;7.55;6.78;;;;;;;11.14;83.21;93705.03;517757;28;848;-54
2023/05/09 00:03:20;;;;;;;7.45;6.70;;;;;;;11.17;83.36;93701.19;516582;28;1798;-55
2023/05/09 00:03:35;;;;;;;7.00;6.20;;;;;;;11.23;83.38;93701.75;515843;28;869;-55
2023/05/09 00:03:50;;;;;;;7.05;6.18;;;;;;;11.29;83.19;93707.13;515836;28;840;-55
2023/05/09 00:04:06;;;;;;;6.77;6.07;;;;;;;11.34;82.97;93701.44;515874;28;817;-55
2023/05/09 00:04:21;;;;;;;6.53;5.93;;;;;;;11.39;82.80;93703.28;515862;28;868;-55
2023/05/09 00:04:37;;;;;;;6.97;6.28;;;;;;;11.41;82.60;93705.50;515800;28;952;-54
2023/05/09 00:04:52;;;;;;;7.10;6.40;;;;;;;11.37;82.33;93699.56;515785;28;833;-56
2023/05/09 00:05:08;;;;;;;6.73;6.07;;;;;;;11.36;82.47;93700.88;515791;28;892;-55
2023/05/09 00:05:24;;;;;;;6.95;6.07;;;;;;;11.33;82.38;93694.41;515873;28;1630;-53
2023/05/09 00:05:40;;;;;;;7.47;6.40;;;;;;;11.35;82.19;93700.13;515775;28;865;-55
2023/05/09 00:05:55;;;;;;;7.13;6.32;;;;;;;11.37;82.51;93694.78;515862;28;818;-55
2023/05/09 00:06:12;;;;;;;7.22;6.50;;;;;;;11.41;82.43;93697.94;515845;28;823;-56
2023/05/09 00:06:27;;;;;;;7.15;6.40;;;;;;;11.36;82.16;93684.28;515757;28;873;-54
2023/05/09 00:06:43;;;;;;;6.57;5.97;;;;;;;11.51;81.92;93697.41;515778;28;853;-55
2023/05/09 00:06:58;;;;;;;6.90;6.20;;;;;;;11.55;81.72;93695.78;515777;28;872;-55
2023/05/09 00:07:13;;;;;;;7.23;6.53;;;;;;;11.59;81.62;93700.94;515825;28;920;-55
2023/05/09 00:07:30;;;;;;;6.80;6.20;;;;;;;11.62;81.34;93694.31;515820;28;790;-55
2023/05/09 00:07:45;;;;;;;6.68;6.07;;;;;;;11.64;81.21;93702.78;515795;28;967;-54
2023/05/09 00:08:01;;;;;;;6.32;5.72;;;;;;;11.65;81.07;93707.78;515736;28;801;-55
2023/05/09 00:08:16;;;;;;;6.17;5.50;;;;;;;11.67;81.00;93698.97;515669;28;920;-55
2023/05/09 00:08:32;;;;;;;6.38;5.78;;;;;;;11.67;80.88;93702.47;515673;28;813;-55
2023/05/09 00:08:47;;;;;;;6.80;6.10;;;;;;;11.70;80.83;93698.59;515569;28;844;-55
2023/05/09 00:09:03;;;;;;;6.78;6.07;;;;;;;11.74;80.75;93698.22;515757;28;880;-55
2023/05/09 00:09:19;;;;;;;6.50;5.90;;;;;;;11.70;80.54;93698.59;515676;28;766;-55
2023/05/09 00:09:34;;;;;;;6.73;6.03;;;;;;;11.71;80.55;93702.84;515645;28;894;-55
2023/05/09 00:09:50;;;;;;;7.68;6.18;;;;;;;11.71;80.44;93700.09;515621;28;960;-53
2023/05/09 00:10:05;;;;;;;7.23;5.97;;;;;;;11.70;80.48;93704.13;515677;28;857;-54
2023/05/09 00:10:21;;;;;;;6.57;5.97;;;;;;;11.63;80.42;93701.34;515827;28;836;-55
2023/05/09 00:10:36;;;;;;;6.50;5.90;;;;;;;11.62;80.43;93699.84;515791;28;866;-56
2023/05/09 00:10:52;;;;;;;6.20;5.60;;;;;;;11.63;80.40;93704.81;515751;28;963;-55
2023/05/09 00:11:08;;;;;;;8.80;5.73;;;;;;;11.67;80.10;93701.75;515783;28;877;-55
2023/05/09 00:11:23;;;;;;;8.68;5.63;;;;;;;11.55;80.27;93684.72;515753;28;931;-55
2023/05/09 00:11:38;;;;;;;6.33;5.70;;;;;;;11.72;80.22;93701.56;515763;28;846;-56
2023/05/09 00:11:54;;;;;;;6.40;5.80;;;;;;;11.75;80.04;93703.22;515761;28;1970;-56
2023/05/09 00:12:10;;;;;;;7.47;5.82;;;;;;;11.72;79.95;93703.56;515819;28;849;-55
2023/05/09 00:12:27;;;;;;;7.47;5.95;;;;;;;11.70;80.05;93704.13;515882;28;876;-56
2023/05/09 00:12:42;;;;;;;6.75;5.97;;;;;;;11.70;80.12;93706.91;515880;28;827;-55
2023/05/09 00:12:58;;;;;;;6.47;5.80;;;;;;;11.67;80.13;93705.25;515733;28;887;-54
2023/05/09 00:13:14;;;;;;;6.05;5.45;;;;;;;11.59;80.06;93695.41;515892;28;878;-55
2023/05/09 00:13:29;;;;;;;6.60;5.40;;;;;;;11.63;80.34;93702.06;515776;28;864;-55
2023/05/09 00:13:44;;;;;;;6.20;5.33;;;;;;;11.63;80.48;93704.09;515805;28;828;-56
2023/05/09 00:14:01;;;;;;;6.17;5.57;;;;;;;11.69;80.48;93704.69;515811;28;846;-56
2023/05/09 00:14:17;;;;;;;6.32;5.72;;;;;;;11.72;80.49;93700.81;515610;28;868;-55
2023/05/09 00:14:32;;;;;;;6.80;6.20;;;;;;;11.75;80.43;93703.22;515667;28;1004;-56
2023/05/09 00:14:50;;;;;;;6.77;6.17;;;;;;;11.78;80.47;93704.88;515539;28;974;-54
2023/05/09 00:15:07;;;;;;;7.30;6.20;;;;;;;11.81;80.26;93706.56;515596;28;930;-56
2023/05/09 00:15:22;;;;;;;7.47;6.20;;;;;;;11.85;80.37;93703.41;515616;28;926;-55
2023/05/09 00:15:38;;;;;;;6.93;6.20;;;;;;;11.88;80.24;93705.84;515658;28;850;-54
2023/05/09 00:15:53;;;;;;;7.07;6.30;;;;;;;11.91;80.14;93701.94;515493;28;1199;-54
2023/05/09 00:16:09;;;;;;;7.47;6.67;;;;;;;11.92;80.18;93713.75;515699;28;1568;-56
2023/05/09 00:16:25;;;;;;;8.35;6.80;;;;;;;11.92;80.04;93702.69;515742;28;878;-55
2023/05/09 00:16:40;;;;;;;8.70;6.90;;;;;;;11.93;79.98;93704.19;516837;28;1187;-55
2023/05/09 00:16:58;;;;;;;7.45;6.65;;;;;;;11.95;80.06;93704.38;517778;28;822;-55
2023/05/09 00:17:14;;;;;;;9.88;6.97;;;;;;;11.92;79.90;93703.44;517938;28;947;-55
2023/05/09 00:17:30;;;;;;;9.43;6.65;;;;;;;11.94;79.92;93700.84;517865;28;998;-54
2023/05/09 00:17:46;;;;;;;6.38;5.78;;;;;;;11.95;79.83;93701.59;517886;28;848;-55
2023/05/09 00:18:02;;;;;;;6.85;6.15;;;;;;;11.99;79.80;93708.25;517880;28;899;-56
2023/05/09 00:18:17;;;;;;;7.03;6.30;;;;;;;12.01;79.77;93705.66;517882;28;789;-55
2023/05/09 00:18:32;;;;;;;7.53;6.30;;;;;;;12.03;79.68;93705.13;517873;28;823;-55
2023/05/09 00:18:48;;;;;;;7.43;6.30;;;;;;;12.05;79.56;93694.97;517766;28;797;-55
2023/05/09 00:19:03;;;;;;;7.55;6.63;;;;;;;12.07;79.45;93700.69;517839;28;939;-56
2023/05/09 00:19:19;;;;;;;7.93;6.73;;;;;;;12.09;79.52;93700.88;517809;28;876;-56
2023/05/09 00:19:35;;;;;;;8.00;6.53;;;;;;;12.11;79.46;93703.81;517795;28;784;-55
2023/05/09 00:19:51;;;;;;;7.68;6.80;;;;;;;12.12;79.33;93699.03;517697;28;2426;-54
2023/05/09 00:20:10;;;;;;;7.57;6.88;;;;;;;12.14;79.31;93704.75;515700;28;880;-56
2023/05/09 00:20:26;;;;;;;7.90;7.13;;;;;;;12.14;79.11;93699.97;515860;28;887;-54
2023/05/09 00:20:43;;;;;;;8.20;7.37;;;;;;;12.17;79.08;93704.38;515769;28;824;-55
2023/05/09 00:20:58;;;;;;;9.48;7.40;;;;;;;12.19;78.96;93696.25;517529;28;1131;-55
2023/05/09 00:21:14;;;;;;;9.73;7.85;;;;;;;12.21;78.76;93704.03;517851;28;879;-55
2023/05/09 00:21:29;;;;;;;8.57;7.57;;;;;;;12.18;78.79;93700.34;517750;28;875;-55
2023/05/09 00:21:45;;;;;;;8.02;7.22;;;;;;;12.19;78.67;93703.84;517854;28;815;-56
2023/05/09 00:22:00;;;;;;;8.17;7.23;;;;;;;12.19;78.73;93701.78;517819;28;860;-56
2023/05/09 00:22:16;;;;;;;9.27;7.43;;;;;;;12.21;78.74;93706.06;517755;28;876;-56
2023/05/09 00:22:32;;;;;;;8.82;7.57;;;;;;;12.22;78.78;93704.75;517883;28;871;-53
2023/05/09 00:22:47;;;;;;;8.33;7.50;;;;;;;12.19;78.78;93698.31;517756;28;810;-54
2023/05/09 00:23:04;;;;;;;8.47;7.60;;;;;;;12.10;78.67;93683.00;517865;28;876;-55
2023/05/09 00:23:19;;;;;;;8.65;7.75;;;;;;;12.20;78.63;93705.31;517874;28;800;-56
2023/05/09 00:23:34;;;;;;;8.40;7.50;;;;;;;12.21;78.67;93700.50;517800;28;803;-54
2023/05/09 00:23:50;;;;;;;8.32;7.25;;;;;;;12.22;78.57;93696.44;517863;28;821;-55
2023/05/09 00:24:05;;;;;;;7.97;7.17;;;;;;;12.24;78.54;93702.91;517854;28;856;-55
2023/05/09 00:24:21;;;;;;;8.60;7.22;;;;;;;12.23;78.54;93701.44;517902;28;832;-54
2023/05/09 00:24:36;;;;;;;9.17;7.50;;;;;;;12.26;78.53;93694.06;517759;28;872;-55
2023/05/09 00:24:52;;;;;;;8.37;7.37;;;;;;;12.24;78.52;93694.59;517822;28;853;-55
2023/05/09 00:25:08;;;;;;;8.23;7.43;;;;;;;12.28;78.58;93697.00;517779;28;844;-55
2023/05/09 00:25:24;;;;;;;8.13;7.32;;;;;;;12.30;78.51;93695.16;517898;28;954;-55
2023/05/09 00:25:39;;;;;;;8.30;7.50;;;;;;;12.32;78.51;93694.59;517799;28;906;-55
2023/05/09 00:25:55;;;;;;;9.03;7.80;;;;;;;12.33;78.58;93694.06;517759;28;888;-55
2023/05/09 00:26:10;;;;;;;8.48;7.50;;;;;;;12.34;78.35;93698.31;517875;28;851;-56
2023/05/09 00:26:26;;;;;;;8.10;7.30;;;;;;;12.38;78.42;93697.94;517839;28;796;-55
2023/05/09 00:26:42;;;;;;;9.35;7.15;;;;;;;12.38;78.35;93698.66;517732;28;1473;-55
2023/05/09 00:26:57;;;;;;;9.95;7.53;;;;;;;12.41;78.39;93694.06;517804;28;837;-56
2023/05/09 00:27:13;;;;;;;8.70;7.57;;;;;;;12.30;78.28;93675.06;517928;28;848;-56
2023/05/09 00:27:29;;;;;;;8.60;6.95;;;;;;;12.42;78.30;93696.25;517822;28;809;-55
2023/05/09 00:27:44;;;;;;;9.43;7.18;;;;;;;12.38;78.30;93687.59;517859;28;816;-54
2023/05/09 00:28:00;;;;;;;10.60;7.30;;;;;;;12.42;78.25;93693.50;517874;28;852;-56
2023/05/09 00:28:15;;;;;;;9.70;7.10;;;;;;;12.42;78.13;93687.97;517837;28;839;-55
2023/05/09 00:28:31;;;;;;;8.67;6.93;;;;;;;12.45;78.19;93694.41;517803;28;941;-55
2023/05/09 00:28:46;;;;;;;9.10;7.05;;;;;;;12.46;78.15;93690.34;517672;28;954;-55
2023/05/09 00:29:02;;;;;;;8.50;6.90;;;;;;;12.45;78.09;93684.06;517878;28;769;-55
2023/05/09 00:29:17;;;;;;;7.53;6.70;;;;;;;12.48;77.98;93680.19;517861;28;818;-55
2023/05/09 00:29:33;;;;;;;8.00;7.07;;;;;;;12.52;78.02;93690.88;517858;28;778;-55
2023/05/09 00:29:48;;;;;;;8.07;7.28;;;;;;;12.47;77.94;93675.97;517807;28;1599;-55
2023/05/09 00:30:06;;;;;;;7.70;7.00;;;;;;;12.53;77.75;93687.59;517900;28;812;-55
2023/05/09 00:30:21;;;;;;;8.32;6.95;;;;;;;12.49;77.52;93687.22;517788;28;1654;-55
2023/05/09 00:30:36;;;;;;;9.07;7.23;;;;;;;12.49;77.44;93683.72;517807;28;797;-55
2023/05/09 00:30:52;;;;;;;7.87;7.07;;;;;;;12.49;77.46;93687.22;516062;28;1205;-54
2023/05/09 00:31:07;;;;;;;7.88;6.85;;;;;;;12.41;77.58;93685.75;515763;28;817;-55
2023/05/09 00:31:23;;;;;;;8.83;6.50;;;;;;;12.28;77.66;93680.41;515820;28;840;-55
2023/05/09 00:31:38;;;;;;;7.95;6.47;;;;;;;12.26;77.83;93691.28;515662;28;832;-55
2023/05/09 00:31:54;;;;;;;6.90;6.20;;;;;;;12.21;77.88;93686.69;515724;28;1979;-54
2023/05/09 00:32:09;;;;;;;6.23;5.63;;;;;;;12.19;78.15;93687.94;515805;28;839;-55
2023/05/09 00:32:25;;;;;;;6.35;5.70;;;;;;;12.21;77.94;93684.66;515810;28;789;-54
2023/05/09 00:32:40;;;;;;;7.57;6.07;;;;;;;12.23;77.82;93678.56;515727;28;890;-54
2023/05/09 00:32:55;;;;;;;6.70;5.57;;;;;;;12.28;77.63;93689.44;515712;28;775;-55
2023/05/09 00:33:11;;;;;;;6.03;5.43;;;;;;;12.31;77.57;93687.59;515804;28;900;-55
2023/05/09 00:33:26;;;;;;;6.45;5.75;;;;;;;12.32;77.46;93689.06;515819;28;868;-56
2023/05/09 00:33:42;;;;;;;7.40;5.97;;;;;;;12.33;77.45;93691.28;515708;28;1720;-55
2023/05/09 00:33:57;;;;;;;7.17;5.90;;;;;;;12.35;77.36;93685.19;515791;28;786;-55
2023/05/09 00:34:12;;;;;;;6.35;5.55;;;;;;;12.36;77.26;93692.94;515795;28;939;-55
2023/05/09 00:34:28;;;;;;;6.00;5.27;;;;;;;12.39;77.18;93688.34;515783;28;841;-55
2023/05/09 00:34:43;;;;;;;5.63;5.13;;;;;;;12.40;77.01;93687.03;515834;28;781;-55
2023/05/09 00:34:58;;;;;;;5.60;5.10;;;;;;;12.41;76.76;93688.53;515821;28;840;-53
2023/05/09 00:35:14;;;;;;;5.80;5.30;;;;;;;12.42;76.60;93687.22;515808;28;1085;-56
2023/05/09 00:35:31;;;;;;;5.80;5.30;;;;;;;12.45;76.46;93688.88;515838;28;778;-56
2023/05/09 00:35:46;;;;;;;5.70;5.20;;;;;;;12.47;76.43;93695.34;515700;28;856;-55
2023/05/09 00:36:01;;;;;;;5.72;5.22;;;;;;;12.48;76.44;93696.06;515841;28;853;-55
2023/05/09 00:36:17;;;;;;;5.90;5.40;;;;;;;12.49;76.46;93692.00;515746;28;789;-56
2023/05/09 00:36:32;;;;;;;6.17;5.57;;;;;;;12.49;76.47;93692.00;515709;28;882;-55
2023/05/09 00:36:48;;;;;;;7.20;5.53;;;;;;;12.49;76.37;93690.00;515659;28;904;-56
2023/05/09 00:37:04;;;;;;;6.93;5.40;;;;;;;12.52;76.36;93696.44;515849;28;822;-54
2023/05/09 00:37:19;;;;;;;6.00;5.40;;;;;;;12.53;76.33;93695.16;513835;28;896;-54
2023/05/09 00:37:35;;;;;;;6.10;5.40;;;;;;;12.52;76.29;93688.84;513775;28;1537;-55
2023/05/09 00:37:50;;;;;;;7.20;5.47;;;;;;;12.54;76.16;93694.59;513800;28;779;-55
2023/05/09 00:38:05;;;;;;;6.50;5.72;;;;;;;12.55;76.07;93689.78;513818;28;810;-55
2023/05/09 00:38:22;;;;;;;6.43;5.83;;;;;;;12.55;76.12;93690.53;513793;28;912;-54
2023/05/09 00:38:37;;;;;;;6.47;5.80;;;;;;;12.56;76.20;93688.50;513712;28;889;-56
2023/05/09 00:38:52;;;;;;;6.97;5.82;;;;;;;12.55;76.18;93689.78;513718;28;1068;-55
2023/05/09 00:39:08;;;;;;;7.17;5.97;;;;;;;12.54;76.18;93689.03;513731;28;864;-56
2023/05/09 00:39:24;;;;;;;6.83;6.13;;;;;;;12.55;76.17;93689.78;513839;28;789;-55
2023/05/09 00:39:39;;;;;;;6.60;5.90;;;;;;;12.56;76.09;93691.28;513806;28;845;-54
2023/05/09 00:39:55;;;;;;;7.10;6.40;;;;;;;12.55;76.17;93690.53;513754;28;849;-55
2023/05/09 00:40:10;;;;;;;7.40;6.70;;;;;;;12.48;76.19;93679.44;513710;28;877;-54
2023/05/09 00:40:26;;;;;;;6.57;5.95;;;;;;;12.52;76.27;93690.88;513764;28;1037;-53
2023/05/09 00:40:41;;;;;;;7.37;5.93;;;;;;;12.49;76.38;93695.53;513768;28;1168;-55
2023/05/09 00:40:57;;;;;;;7.90;6.18;;;;;;;12.50;76.34;93688.69;513694;28;944;-55
2023/05/09 00:41:12;;;;;;;6.83;6.10;;;;;;;12.49;76.39;93695.53;513818;28;920;-55
2023/05/09 00:41:27;;;;;;;7.60;6.10;;;;;;;12.50;76.33;93685.91;513798;28;807;-55
2023/05/09 00:41:43;;;;;;;7.72;6.20;;;;;;;12.52;76.32;93688.13;513754;28;860;-56
2023/05/09 00:41:58;;;;;;;7.40;6.33;;;;;;;12.56;76.18;93685.72;513819;28;829;-55
2023/05/09 00:42:14;;;;;;;7.70;6.38;;;;;;;12.54;76.13;93683.50;513842;28;782;-56
2023/05/09 00:42:30;;;;;;;7.07;6.30;;;;;;;12.58;76.05;93688.69;513791;28;794;-55
2023/05/09 00:42:45;;;;;;;6.95;6.25;;;;;;;12.58;76.10;93694.94;513767;28;782;-54
2023/05/09 00:43:00;;;;;;;6.83;6.13;;;;;;;12.55;76.06;93681.47;513796;28;806;-55
2023/05/09 00:43:16;;;;;;;6.90;6.18;;;;;;;12.62;75.97;93692.56;513729;28;888;-55
2023/05/09 00:43:31;;;;;;;7.57;6.43;;;;;;;12.62;75.79;93691.81;513808;28;852;-54
2023/05/09 00:43:47;;;;;;;7.73;6.67;;;;;;;12.61;75.69;93693.09;513794;28;829;-55
2023/05/09 00:44:02;;;;;;;7.28;6.57;;;;;;;12.56;75.80;93691.28;513802;28;1155;-55
2023/05/09 00:44:17;;;;;;;7.83;6.57;;;;;;;12.46;76.14;93687.56;515799;28;806;-55
2023/05/09 00:44:33;;;;;;;8.00;6.37;;;;;;;12.42;76.42;93699.03;515850;28;940;-56
2023/05/09 00:44:48;;;;;;;7.28;6.57;;;;;;;12.40;76.59;93690.53;515710;28;829;-54
2023/05/09 00:45:05;;;;;;;7.00;6.30;;;;;;;12.41;76.90;93685.75;515861;28;818;-54
2023/05/09 00:45:20;;;;;;;6.70;6.00;;;;;;;12.42;76.93;93692.75;515740;28;1578;-55
2023/05/09 00:45:35;;;;;;;6.70;6.10;;;;;;;12.41;77.03;93685.75;515783;28;811;-55
2023/05/09 00:45:51;;;;;;;7.43;6.40;;;;;;;12.43;77.19;93692.19;515624;28;1051;-54
2023/05/09 00:46:06;;;;;;;7.78;6.68;;;;;;;12.44;77.19;93687.41;515564;28;860;-56
2023/05/09 00:46:22;;;;;;;10.07;7.30;;;;;;;12.47;77.18;93689.81;513679;28;794;-55
2023/05/09 00:46:38;;;;;;;11.98;7.80;;;;;;;12.46;77.03;93691.09;513572;28;953;-55
2023/05/09 00:46:54;;;;;;;8.02;7.10;;;;;;;12.49;77.01;93687.22;513594;28;881;-56
2023/05/09 00:47:09;;;;;;;7.50;6.53;;;;;;;12.46;77.00;93693.13;513569;28;883;-55
2023/05/09 00:47:26;;;;;;;7.20;6.43;;;;;;;12.45;76.96;93697.19;513663;28;778;-55
2023/05/09 00:47:42;;;;;;;7.43;6.72;;;;;;;12.44;77.02;93690.16;514217;28;896;-55
2023/05/09 00:47:57;;;;;;;8.95;6.93;;;;;;;12.41;77.10;93692.00;515577;28;896;-55
2023/05/09 00:48:14;;;;;;;9.37;6.90;;;;;;;12.42;77.13;93698.28;515658;28;797;-55
2023/05/09 00:48:29;;;;;;;7.18;6.47;;;;;;;12.41;77.19;93685.75;515620;28;842;-56
2023/05/09 00:48:45;;;;;;;7.13;6.43;;;;;;;12.42;77.11;93699.03;515572;28;785;-55
2023/05/09 00:49:00;;;;;;;7.75;7.00;;;;;;;12.44;77.15;93699.22;515650;28;781;-54
2023/05/09 00:49:16;;;;;;;7.70;7.00;;;;;;;12.43;77.14;93692.19;513607;28;836;-55
2023/05/09 00:49:31;;;;;;;7.18;6.47;;;;;;;12.41;77.29;93694.78;513691;28;849;-54
2023/05/09 00:49:47;;;;;;;7.33;6.60;;;;;;;12.35;77.44;93699.03;513528;28;873;-55
2023/05/09 00:50:03;;;;;;;8.85;7.40;;;;;;;12.32;77.62;93695.34;513572;28;955;-55
2023/05/09 00:50:18;;;;;;;9.67;7.40;;;;;;;12.29;77.67;93693.69;513601;28;1274;-54
2023/05/09 00:50:34;;;;;;;8.65;7.00;;;;;;;12.31;77.70;93701.44;513529;28;892;-56
2023/05/09 00:50:51;;;;;;;7.40;6.60;;;;;;;12.29;77.73;93693.69;513607;28;802;-55
2023/05/09 00:51:07;;;;;;;7.22;6.53;;;;;;;12.27;77.71;93696.28;514252;28;1018;-56
2023/05/09 00:51:22;;;;;;;8.43;6.73;;;;;;;12.30;77.78;93694.44;515600;28;852;-54
2023/05/09 00:51:39;;;;;;;8.35;6.82;;;;;;;12.29;77.70;93693.69;514293;28;908;-54
2023/05/09 00:51:55;;;;;;;8.25;7.38;;;;;;;12.35;77.60;93694.22;515484;28;1968;-54
2023/05/09 00:52:10;;;;;;;8.05;7.25;;;;;;;12.36;77.58;93694.97;515594;28;845;-54
2023/05/09 00:52:26;;;;;;;7.67;6.97;;;;;;;12.40;77.32;93693.31;515567;28;919;-54
2023/05/09 00:52:41;;;;;;;7.45;6.65;;;;;;;12.42;77.33;93695.53;513602;28;828;-56
2023/05/09 00:52:57;;;;;;;6.90;6.20;;;;;;;12.42;77.20;93687.22;513539;28;902;-56
2023/05/09 00:53:13;;;;;;;7.20;6.50;;;;;;;12.49;77.15;93692.00;513654;28;881;-54
2023/05/09 00:53:28;;;;;;;8.00;6.77;;;;;;;12.48;77.08;93694.03;514210;28;908;-55
2023/05/09 00:53:44;;;;;;;7.97;7.18;;;;;;;12.48;77.04;93693.28;515655;28;848;-56
2023/05/09 00:54:00;;;;;;;8.43;7.53;;;;;;;12.49;76.92;93689.25;515643;28;857;-55
2023/05/09 00:54:15;;;;;;;8.40;7.47;;;;;;;12.46;76.99;93690.34;515668;28;868;-56
2023/05/09 00:54:31;;;;;;;8.00;7.20;;;;;;;12.48;76.92;93693.28;515647;28;898;-55
2023/05/09 00:54:46;;;;;;;8.13;7.33;;;;;;;12.47;77.05;93684.28;513537;28;927;-55
2023/05/09 00:55:02;;;;;;;7.93;7.07;;;;;;;12.49;76.95;93686.47;511667;29;862;-55
2023/05/09 00:55:18;;;;;;;7.55;6.75;;;;;;;12.48;77.05;93690.53;511607;29;802;-55
2023/05/09 00:55:33;;;;;;;7.88;7.07;;;;;;;12.44;76.96;93690.91;511711;29;833;-55
2023/05/09 00:55:49;;;;;;;7.93;7.18;;;;;;;12.34;76.97;93670.63;511957;28;806;-56
2023/05/09 00:56:05;;;;;;;7.50;6.80;;;;;;;12.39;77.10;93689.06;513618;28;973;-54
2023/05/09 00:56:20;;;;;;;7.45;6.75;;;;;;;12.38;77.07;93690.38;511600;29;873;-53
2023/05/09 00:56:36;;;;;;;7.90;7.10;;;;;;;12.39;77.24;93689.06;512180;28;819;-55
2023/05/09 00:56:51;;;;;;;9.23;7.30;;;;;;;12.40;77.22;93682.25;513968;28;794;-55
2023/05/09 00:57:07;;;;;;;8.68;7.15;;;;;;;12.43;77.17;93692.19;515586;28;869;-55
2023/05/09 00:57:22;;;;;;;9.37;7.27;;;;;;;12.46;77.08;93690.34;515672;28;773;-54
2023/05/09 00:57:38;;;;;;;8.87;7.40;;;;;;;12.47;77.02;93686.28;515594;28;850;-55
2023/05/09 00:57:53;;;;;;;8.23;7.43;;;;;;;12.48;77.14;93691.28;515576;28;1217;-54
2023/05/09 00:58:08;;;;;;;8.37;7.13;;;;;;;12.49;76.96;93684.44;515207;28;1135;-55
2023/05/09 00:58:24;;;;;;;8.70;6.93;;;;;;;12.52;77.09;93686.09;513744;28;849;-56
2023/05/09 00:58:40;;;;;;;9.80;7.10;;;;;;;12.54;76.78;93689.03;513768;28;815;-55
2023/05/09 00:58:55;;;;;;;12.38;7.30;;;;;;;12.56;77.03;93682.97;513846;28;829;-55
2023/05/09 00:59:11;;;;;;;10.90;7.20;;;;;;;12.58;77.10;93689.41;514170;28;852;-55
2023/05/09 00:59:26;;;;;;;7.97;7.13;;;;;;;12.61;77.14;93690.31;514120;28;1563;-55
2023/05/09 00:59:41;;;;;;;7.83;6.83;;;;;;;12.62;77.23;93686.28;514213;28;750;-55
2023/05/09 00:59:57;;;;;;;7.47;6.63;;;;;;;12.66;77.13;93692.91;513909;28;941;-56
2023/05/09 01:00:13;;;;;;;7.60;6.68;;;;;;;12.64;77.05;93689.22;512030;29;845;-56
2023/05/09 01:00:28;;;;;;;7.85;6.45;;;;;;;12.68;77.11;93686.81;511969;29;814;-56
2023/05/09 01:00:43;;;;;;;9.20;6.70;;;;;;;12.68;76.99;93687.56;511966;29;784;-56
2023/05/09 01:01:01;;;;;;;9.40;6.83;;;;;;;12.70;77.04;93681.44;512004;29;841;-56
2023/05/09 01:01:16;;;;;;;7.35;6.53;;;;;;;12.70;76.87;93689.75;512002;29;933;-56
2023/05/09 01:01:31;;;;;;;7.00;6.23;;;;;;;12.61;76.87;93673.72;512083;29;774;-55
2023/05/09 01:01:47;;;;;;;7.40;5.87;;;;;;;12.74;76.84;93681.81;512424;28;850;-56
2023/05/09 01:02:02;;;;;;;7.75;5.50;;;;;;;12.73;76.69;93689.38;514028;28;794;-56
2023/05/09 01:02:18;;;;;;;6.83;5.87;;;;;;;12.76;76.57;93682.00;514163;28;817;-55
2023/05/09 01:02:33;;;;;;;6.50;5.90;;;;;;;12.78;76.42;93687.72;514165;28;880;-55
2023/05/09 01:02:52;;;;;;;6.25;5.65;;;;;;;12.62;75.96;93672.44;513930;28;809;-56
2023/05/09 01:03:07;;;;;;;7.80;5.95;;;;;;;12.66;75.92;93683.88;514027;28;1158;-54
2023/05/09 01:03:23;;;;;;;7.03;5.83;;;;;;;12.65;75.92;93674.81;514035;28;848;-56
2023/05/09 01:03:40;;;;;;;6.50;5.90;;;;;;;12.54;76.03;93688.31;513983;28;798;-54
2023/05/09 01:03:55;;;;;;;6.30;5.70;;;;;;;12.40;76.47;93681.50;513906;28;913;-55
2023/05/09 01:04:12;;;;;;;6.20;5.70;;;;;;;12.35;76.86;93688.69;514025;28;1004;-56
2023/05/09 01:04:27;;;;;;;6.70;5.95;;;;;;;12.36;77.15;93689.44;511956;29;866;-56
2023/05/09 01:04:44;;;;;;;7.33;6.03;;;;;;;12.38;77.20;93684.81;513204;28;810;-56
2023/05/09 01:05:00;;;;;;;6.25;5.65;;;;;;;12.43;77.31;93685.94;511952;28;932;-56
2023/05/09 01:05:16;;;;;;;5.93;5.43;;;;;;;12.42;77.23;93687.97;512010;29;878;-56
2023/05/09 01:05:55;;;;;;;6.30;5.70;;;;;;;12.47;77.25;93686.28;512099;29;817;-56
2023/05/09 01:06:13;;;;;;;7.63;5.75;;;;;;;12.48;77.18;93694.03;511908;29;1759;-56
2023/05/09 01:06:53;;;;;;;6.90;5.55;;;;;;;12.54;77.04;93685.56;511909;29;970;-56
2023/05/09 01:07:10;;;;;;;6.20;5.60;;;;;;;12.55;76.82;93684.25;511899;29;964;-55
2023/05/09 01:07:45;;;;;;;7.28;5.70;;;;;;;12.58;76.67;93686.63;513137;28;922;-56
2023/05/09 01:08:15;;;;;;;6.72;6.03;;;;;;;12.56;76.65;93689.22;511958;29;865;-56
2023/05/09 01:08:44;;;;;;;6.35;5.72;;;;;;;12.60;76.55;93686.84;509963;29;1043;-56
2023/05/09 01:09:18;;;;;;;6.28;5.50;;;;;;;12.60;76.49;93684.06;510595;29;828;-56
2023/05/09 01:09:52;;;;;;;6.90;5.70;;;;;;;12.61;76.44;93693.09;510010;29;944;-55
2023/05/09 01:10:18;;;;;;;6.72;5.65;;;;;;;12.64;76.34;93684.44;511823;28;1144;-55
2023/05/09 01:10:38;;;;;;;6.22;5.43;;;;;;;12.64;76.31;93689.22;514021;28;872;-54
2023/05/09 01:11:03;;;;;;;7.18;5.78;;;;;;;12.64;76.40;93686.44;513976;28;863;-55
2023/05/09 01:11:28;;;;;;;6.22;5.63;;;;;;;12.67;76.35;93677.00;511943;29;843;-55
2023/05/09 01:11:50;;;;;;;8.85;5.25;;;;;;;12.69;76.34;93686.25;511996;29;1366;-54
2023/05/09 01:12:24;;;;;;;6.22;5.55;;;;;;;12.72;76.20;93679.59;509951;29;953;-55
2023/05/09 01:12:51;;;;;;;7.07;5.70;;;;;;;12.74;76.01;93684.56;509850;29;981;-54
2023/05/09 01:13:19;;;;;;;6.28;5.68;;;;;;;12.75;76.02;93680.53;512211;28;901;-55
2023/05/09 01:13:53;;;;;;;7.07;5.80;;;;;;;12.81;76.06;93686.59;512574;28;944;-55
2023/05/09 01:14:17;;;;;;;6.85;5.60;;;;;;;12.83;75.96;93687.53;513871;28;898;-55
2023/05/09 01:15:05;;;;;;;5.85;5.35;;;;;;;12.84;75.95;93682.72;513948;28;825;-55
2023/05/09 01:15:34;;;;;;;9.35;7.70;;;;;;;12.77;75.95;93689.03;511955;28;885;-55
2023/05/09 01:15:54;;;;;;;14.10;9.07;;;;;;;12.69;76.33;93691.78;513944;28;828;-52
2023/05/09 01:16:13;;;;;;;10.15;8.07;;;;;;;12.64;76.37;93687.19;512384;28;2605;-54
2023/05/09 01:16:42;;;;;;;8.38;7.45;;;;;;;12.56;76.68;93688.50;513812;28;964;-55
2023/05/09 01:17:03;;;;;;;7.80;6.72;;;;;;;12.52;76.78;93686.09;511916;29;857;-55
2023/05/09 01:17:44;;;;;;;7.97;7.05;;;;;;;12.56;77.07;93688.50;513449;28;900;-56
2023/05/09 01:18:07;;;;;;;7.55;6.68;;;;;;;12.60;77.06;93691.63;510245;29;1410;-55
2023/05/09 01:18:30;;;;;;;6.70;6.07;;;;;;;12.65;76.77;93687.91;509921;29;831;-56
2023/05/09 01:18:49;;;;;;;8.68;5.97;;;;;;;12.68;76.72;93695.13;510933;28;1244;-55
2023/05/09 01:19:19;;;;;;;9.32;5.95;;;;;;;12.68;76.57;93679.25;511958;29;1812;-55
2023/05/09 01:19:47;;;;;;;6.40;5.45;;;;;;;12.72;76.38;93682.38;509927;29;934;-55
2023/05/09 01:20:33;;;;;;;6.60;6.00;;;;;;;12.75;75.72;93686.06;509979;28;865;-56
2023/05/09 01:20:57;;;;;;;7.38;5.75;;;;;;;12.77;75.70;93689.03;509537;29;1321;-55
2023/05/09 01:21:16;;;;;;;6.85;5.80;;;;;;;12.68;75.65;93686.81;509725;29;1234;-56
2023/05/09 01:21:32;;;;;;;6.07;5.47;;;;;;;12.60;75.78;93689.59;512033;28;1120;-55
2023/05/09 01:21:48;;;;;;;6.03;5.43;;;;;;;12.61;75.89;93684.78;511899;29;1626;-55
2023/05/09 01:22:07;;;;;;;7.38;5.75;;;;;;;12.61;75.96;93693.09;509971;29;904;-56
2023/05/09 01:22:28;;;;;;;6.38;5.57;;;;;;;12.56;76.01;93677.44;509984;29;915;-55
2023/05/09 01:22:47;;;;;;;5.93;5.38;;;;;;;12.64;75.93;93686.44;509277;29;1040;-55
2023/05/09 01:23:29;;;;;;;5.90;5.18;;;;;;;12.67;75.85;93693.63;510054;29;861;-56
2023/05/09 01:23:44;;;;;;;6.13;5.30;;;;;;;12.67;75.76;93697.16;511450;29;812;-55
2023/05/09 01:24:18;;;;;;;5.90;5.30;;;;;;;12.67;75.69;93696.41;513196;28;845;-54
2023/05/09 01:25:12;;;;;;;5.80;5.20;;;;;;;12.64;75.70;93700.31;512404;28;869;-55